createdAt,value
2019-01-17T00:00:09.568Z,986.6
2019-01-17T00:01:11.677Z,986.6
2019-01-17T00:02:13.786Z,986.6
2019-01-17T00:03:15.898Z,986.6
2019-01-17T00:04:18.311Z,986.6
2019-01-17T00:05:20.711Z,986.5
2019-01-17T00:06:22.873Z,986.6
2019-01-17T00:07:24.982Z,986.5
2019-01-17T00:08:27.117Z,986.6
2019-01-17T00:09:29.216Z,986.6
2019-01-17T00:10:31.617Z,986.4
2019-01-17T00:11:33.741Z,986.5
2019-01-17T00:12:35.865Z,986.5
2019-01-17T00:13:38.041Z,986.5
2019-01-17T00:14:40.278Z,986.4
2019-01-17T00:15:42.764Z,986.5
2019-01-17T00:16:44.868Z,986.5
2019-01-17T00:17:47.008Z,986.5
2019-01-17T00:18:49.116Z,986.5
2019-01-17T00:19:51.214Z,986.5
2019-01-17T00:20:53.359Z,986.5
2019-01-17T00:21:55.485Z,986.5
2019-01-17T00:22:58.013Z,986.5
2019-01-17T00:24:03.020Z,986.4
2019-01-17T00:25:05.784Z,986.4
2019-01-17T00:26:08.227Z,986.4
2019-01-17T00:27:10.346Z,986.4
2019-01-17T00:28:12.469Z,986.4
2019-01-17T00:29:14.570Z,986.4
2019-01-17T00:30:16.694Z,986.4
2019-01-17T00:31:18.828Z,986.5
2019-01-17T00:32:20.929Z,986.3
2019-01-17T00:33:23.084Z,986.4
2019-01-17T00:34:25.188Z,986.4
2019-01-17T00:35:27.340Z,986.4
2019-01-17T00:36:29.452Z,986.4
2019-01-17T00:37:31.584Z,986.3
2019-01-17T00:38:33.742Z,986.3
2019-01-17T00:39:36.136Z,986.3
2019-01-17T00:40:38.277Z,986.3
2019-01-17T00:41:40.370Z,986.4
2019-01-17T00:42:42.484Z,986.3
2019-01-17T00:43:44.623Z,986.3
2019-01-17T00:44:46.752Z,986.3
2019-01-17T00:45:48.888Z,986.2
2019-01-17T00:46:50.996Z,986.2
2019-01-17T00:47:53.109Z,986.3
2019-01-17T00:48:55.203Z,986.3
2019-01-17T00:49:57.598Z,986.3
2019-01-17T00:51:00.112Z,986.2
2019-01-17T00:52:02.223Z,986.3
2019-01-17T00:53:04.339Z,986.3
2019-01-17T00:54:09.499Z,986.3
2019-01-17T00:55:11.888Z,986.2
2019-01-17T00:56:13.993Z,986.2
2019-01-17T00:57:16.112Z,986.2
2019-01-17T00:58:18.205Z,986.2
2019-01-17T00:59:20.706Z,986.2
2019-01-17T01:00:22.809Z,986.2
2019-01-17T01:01:25.230Z,986.2
2019-01-17T01:02:27.327Z,986.2
2019-01-17T01:03:29.445Z,986.2
2019-01-17T01:04:31.552Z,986.1
2019-01-17T01:05:33.660Z,986
2019-01-17T01:06:36.061Z,986.1
2019-01-17T01:07:38.160Z,986.1
2019-01-17T01:08:40.264Z,986.1
2019-01-17T01:09:42.370Z,986.1
2019-01-17T01:10:44.496Z,986.1
2019-01-17T01:11:46.597Z,986
2019-01-17T01:12:48.713Z,986
2019-01-17T01:13:51.113Z,986
2019-01-17T01:14:53.210Z,986.1
2019-01-17T01:15:55.332Z,986
2019-01-17T01:16:57.441Z,986
2019-01-17T01:17:59.544Z,986.1
2019-01-17T01:19:01.651Z,986
2019-01-17T01:20:04.057Z,985.9
2019-01-17T01:21:06.563Z,986
2019-01-17T01:22:08.710Z,985.9
2019-01-17T01:23:11.151Z,986
2019-01-17T01:24:15.782Z,986
2019-01-17T01:25:17.893Z,985.9
2019-01-17T01:26:19.997Z,986
2019-01-17T01:27:22.125Z,986
2019-01-17T01:28:24.231Z,986
2019-01-17T01:29:26.624Z,986.1
2019-01-17T01:30:28.743Z,986
2019-01-17T01:31:31.125Z,986
2019-01-17T01:32:33.240Z,986
2019-01-17T01:33:35.401Z,986
2019-01-17T01:34:37.537Z,986
2019-01-17T01:35:39.914Z,986
2019-01-17T01:36:42.311Z,986
2019-01-17T01:37:44.444Z,986
2019-01-17T01:38:46.835Z,985.9
2019-01-17T01:39:48.957Z,986
2019-01-17T01:40:51.069Z,986
2019-01-17T01:41:53.482Z,986
2019-01-17T01:42:55.589Z,986
2019-01-17T01:43:57.706Z,985.9
2019-01-17T01:44:59.806Z,986
2019-01-17T01:46:01.924Z,985.9
2019-01-17T01:47:04.034Z,985.9
2019-01-17T01:48:06.130Z,986
2019-01-17T01:49:08.246Z,985.9
2019-01-17T01:50:10.358Z,985.9
2019-01-17T01:51:12.461Z,986
2019-01-17T01:52:14.958Z,985.9
2019-01-17T01:53:17.083Z,986
2019-01-17T01:54:22.406Z,985.9
2019-01-17T01:55:24.530Z,985.9
2019-01-17T01:56:26.643Z,986
2019-01-17T01:57:29.040Z,985.8
2019-01-17T01:58:31.192Z,985.9
2019-01-17T01:59:33.593Z,985.9
2019-01-17T02:00:35.685Z,986
2019-01-17T02:01:37.795Z,986
2019-01-17T02:02:39.913Z,985.8
2019-01-17T02:03:42.014Z,985.9
2019-01-17T02:04:44.141Z,985.9
2019-01-17T02:05:46.244Z,985.9
2019-01-17T02:06:48.354Z,985.8
2019-01-17T02:07:50.449Z,985.9
2019-01-17T02:08:52.959Z,985.8
2019-01-17T02:09:55.059Z,985.8
2019-01-17T02:10:57.174Z,985.6
2019-01-17T02:11:59.300Z,985.8
2019-01-17T02:13:01.393Z,985.8
2019-01-17T02:14:03.525Z,985.9
2019-01-17T02:15:05.636Z,985.9
2019-01-17T02:16:07.750Z,985.8
2019-01-17T02:17:09.842Z,985.8
2019-01-17T02:18:11.959Z,985.8
2019-01-17T02:19:14.059Z,985.8
2019-01-17T02:20:16.169Z,985.8
2019-01-17T02:21:18.292Z,985.7
2019-01-17T02:22:20.396Z,985.7
2019-01-17T02:23:22.504Z,985.8
2019-01-17T02:24:28.832Z,985.8
2019-01-17T02:25:30.948Z,985.8
2019-01-17T02:26:33.056Z,985.8
2019-01-17T02:27:35.556Z,985.8
2019-01-17T02:28:37.657Z,985.7
2019-01-17T02:29:40.077Z,985.7
2019-01-17T02:30:42.592Z,985.8
2019-01-17T02:31:44.986Z,985.8
2019-01-17T02:32:47.418Z,985.7
2019-01-17T02:33:49.545Z,985.7
2019-01-17T02:34:51.663Z,985.6
2019-01-17T02:35:53.769Z,985.6
2019-01-17T02:36:55.874Z,985.7
2019-01-17T02:37:58.297Z,985.7
2019-01-17T02:39:00.408Z,985.6
2019-01-17T02:40:03.194Z,985.6
2019-01-17T02:41:05.599Z,985.6
2019-01-17T02:42:07.732Z,985.7
2019-01-17T02:43:10.803Z,985.7
2019-01-17T02:44:13.474Z,985.7
2019-01-17T02:45:15.672Z,985.7
2019-01-17T02:46:17.761Z,985.7
2019-01-17T02:47:19.895Z,985.7
2019-01-17T02:48:22.670Z,985.7
2019-01-17T02:49:24.791Z,985.6
2019-01-17T02:50:26.888Z,985.6
2019-01-17T02:51:29.010Z,985.6
2019-01-17T02:52:31.133Z,985.6
2019-01-17T02:53:33.236Z,985.6
2019-01-17T02:54:36.101Z,985.6
2019-01-17T02:55:38.204Z,985.7
2019-01-17T02:56:40.324Z,985.7
2019-01-17T02:57:42.858Z,985.6
2019-01-17T02:58:45.533Z,985.6
2019-01-17T02:59:47.917Z,985.7
2019-01-17T03:00:50.059Z,985.7
2019-01-17T03:01:52.498Z,985.8
2019-01-17T03:02:54.615Z,985.7
2019-01-17T03:03:57.425Z,985.7
2019-01-17T03:04:59.535Z,985.8
2019-01-17T03:06:01.749Z,985.8
2019-01-17T03:07:04.279Z,985.8
2019-01-17T03:08:06.401Z,985.8
2019-01-17T03:09:08.503Z,985.8
2019-01-17T03:10:10.911Z,985.8
2019-01-17T03:11:13.003Z,985.8
2019-01-17T03:12:15.214Z,985.9
2019-01-17T03:13:17.637Z,985.8
2019-01-17T03:14:19.770Z,985.8
2019-01-17T03:15:22.176Z,985.8
2019-01-17T03:16:24.307Z,985.7
2019-01-17T03:17:26.464Z,985.7
2019-01-17T03:18:28.565Z,985.7
2019-01-17T03:19:31.265Z,985.7
2019-01-17T03:20:33.364Z,985.7
2019-01-17T03:21:36.157Z,985.7
2019-01-17T03:22:38.265Z,985.7
2019-01-17T03:23:40.405Z,985.7
2019-01-17T03:24:43.394Z,985.7
2019-01-17T03:25:45.517Z,985.6
2019-01-17T03:26:47.635Z,985.6
2019-01-17T03:27:49.733Z,985.7
2019-01-17T03:28:51.852Z,985.5
2019-01-17T03:29:54.253Z,985.8
2019-01-17T03:30:56.355Z,985.8
2019-01-17T03:31:59.122Z,985.7
2019-01-17T03:33:01.959Z,985.8
2019-01-17T03:34:05.075Z,985.7
2019-01-17T03:35:08.206Z,985.7
2019-01-17T03:36:10.324Z,985.7
2019-01-17T03:37:12.429Z,985.7
2019-01-17T03:38:14.540Z,985.7
2019-01-17T03:39:16.670Z,985.6
2019-01-17T03:40:19.158Z,985.6
2019-01-17T03:41:21.681Z,985.7
2019-01-17T03:42:23.810Z,985.7
2019-01-17T03:43:25.917Z,985.8
2019-01-17T03:44:28.081Z,985.8
2019-01-17T03:45:30.183Z,985.8
2019-01-17T03:46:32.298Z,985.7
2019-01-17T03:47:34.412Z,985.8
2019-01-17T03:48:36.552Z,985.8
2019-01-17T03:49:38.667Z,985.7
2019-01-17T03:50:41.064Z,985.8
2019-01-17T03:51:43.202Z,985.7
2019-01-17T03:52:45.323Z,985.7
2019-01-17T03:53:47.427Z,985.7
2019-01-17T03:54:54.028Z,985.8
2019-01-17T03:55:56.621Z,985.8
2019-01-17T03:56:58.761Z,985.8
2019-01-17T03:58:01.263Z,985.8
2019-01-17T03:59:03.704Z,985.8
2019-01-17T04:00:05.826Z,985.7
2019-01-17T04:01:08.201Z,985.7
2019-01-17T04:02:10.328Z,985.8
2019-01-17T04:03:12.439Z,985.7
2019-01-17T04:04:14.606Z,985.7
2019-01-17T04:05:16.718Z,985.8
2019-01-17T04:06:18.848Z,985.8
2019-01-17T04:07:21.266Z,985.8
2019-01-17T04:08:23.405Z,985.8
2019-01-17T04:09:25.532Z,985.8
2019-01-17T04:10:27.655Z,985.8
2019-01-17T04:11:29.766Z,985.8
2019-01-17T04:12:31.886Z,985.8
2019-01-17T04:13:33.983Z,985.8
2019-01-17T04:14:36.141Z,985.8
2019-01-17T04:15:38.947Z,985.9
2019-01-17T04:16:41.051Z,985.9
2019-01-17T04:17:43.178Z,985.9
2019-01-17T04:18:45.672Z,985.9
2019-01-17T04:19:47.788Z,985.9
2019-01-17T04:20:49.895Z,985.8
2019-01-17T04:21:52.023Z,985.8
2019-01-17T04:22:54.121Z,985.8
2019-01-17T04:23:56.521Z,985.8
2019-01-17T04:24:59.037Z,985.8
2019-01-17T04:26:01.181Z,985.7
2019-01-17T04:27:03.608Z,985.8
2019-01-17T04:28:05.992Z,985.8
2019-01-17T04:29:08.110Z,985.7
2019-01-17T04:30:10.495Z,985.8
2019-01-17T04:31:12.618Z,985.8
2019-01-17T04:32:15.018Z,985.9
2019-01-17T04:33:17.127Z,985.9
2019-01-17T04:34:19.253Z,985.9
2019-01-17T04:35:21.357Z,986
2019-01-17T04:36:23.466Z,986
2019-01-17T04:37:25.590Z,985.9
2019-01-17T04:38:27.703Z,986
2019-01-17T04:39:29.809Z,986
2019-01-17T04:40:32.342Z,986
2019-01-17T04:41:34.451Z,986
2019-01-17T04:42:36.568Z,986
2019-01-17T04:43:39.005Z,986
2019-01-17T04:44:41.122Z,986.1
2019-01-17T04:45:43.223Z,986.1
2019-01-17T04:46:45.356Z,986
2019-01-17T04:47:47.467Z,986
2019-01-17T04:48:49.567Z,985.9
2019-01-17T04:49:51.686Z,986
2019-01-17T04:50:53.779Z,985.9
2019-01-17T04:51:55.904Z,985.9
2019-01-17T04:52:58.012Z,985.9
2019-01-17T04:54:00.147Z,986
2019-01-17T04:55:05.789Z,986
2019-01-17T04:56:08.601Z,986.1
2019-01-17T04:57:11.030Z,986.1
2019-01-17T04:58:13.159Z,986.1
2019-01-17T04:59:15.286Z,986.1
2019-01-17T05:00:17.692Z,986.1
2019-01-17T05:01:20.105Z,986
2019-01-17T05:02:22.506Z,986
2019-01-17T05:03:24.641Z,986.1
2019-01-17T05:04:26.742Z,986.1
2019-01-17T05:05:28.870Z,986.1
2019-01-17T05:06:31.033Z,986.1
2019-01-17T05:07:33.140Z,986.1
2019-01-17T05:08:35.539Z,986.2
2019-01-17T05:09:37.958Z,986.2
2019-01-17T05:10:40.364Z,986.2
2019-01-17T05:11:42.483Z,986.1
2019-01-17T05:12:44.592Z,986.2
2019-01-17T05:13:47.097Z,986.1
2019-01-17T05:14:49.217Z,986.2
2019-01-17T05:15:51.622Z,986.2
2019-01-17T05:16:54.635Z,986.2
2019-01-17T05:17:57.140Z,986.3
2019-01-17T05:18:59.240Z,986.3
2019-01-17T05:20:01.362Z,986.2
2019-01-17T05:21:03.857Z,986.2
2019-01-17T05:22:06.636Z,986.2
2019-01-17T05:23:08.761Z,986.2
2019-01-17T05:24:10.868Z,986.2
2019-01-17T05:25:13.385Z,986.2
2019-01-17T05:26:15.515Z,986.3
2019-01-17T05:27:17.649Z,986.2
2019-01-17T05:28:19.753Z,986.2
2019-01-17T05:29:21.880Z,986.2
2019-01-17T05:30:23.995Z,986.2
2019-01-17T05:31:26.104Z,986.2
2019-01-17T05:32:28.544Z,986.2
2019-01-17T05:33:37.695Z,986.2
2019-01-17T05:34:40.202Z,986.2
2019-01-17T05:35:42.314Z,986.3
2019-01-17T05:36:44.457Z,986.3
2019-01-17T05:37:47.143Z,986.2
2019-01-17T05:38:49.260Z,986.3
2019-01-17T05:39:51.378Z,986.2
2019-01-17T05:40:53.478Z,986.2
2019-01-17T05:41:55.897Z,986.3
2019-01-17T05:42:58.012Z,986.2
2019-01-17T05:44:00.113Z,986.2
2019-01-17T05:45:02.513Z,986.2
2019-01-17T05:46:04.633Z,986.2
2019-01-17T05:47:07.045Z,986.2
2019-01-17T05:48:09.151Z,986.3
2019-01-17T05:49:11.262Z,986.2
2019-01-17T05:50:13.692Z,986.3
2019-01-17T05:51:15.810Z,986.3
2019-01-17T05:52:18.313Z,986.3
2019-01-17T05:53:20.444Z,986.3
2019-01-17T05:54:22.557Z,986.3
2019-01-17T05:55:24.662Z,986.3
2019-01-17T05:56:27.176Z,986.2
2019-01-17T05:57:29.310Z,986.3
2019-01-17T05:58:31.719Z,986.3
2019-01-17T05:59:33.835Z,986.3
2019-01-17T06:00:35.966Z,986.3
2019-01-17T06:01:38.347Z,986.3
2019-01-17T06:02:40.469Z,986.2
2019-01-17T06:03:42.860Z,986.3
2019-01-17T06:04:44.955Z,986.2
2019-01-17T06:05:47.084Z,986.2
2019-01-17T06:06:49.186Z,986.2
2019-01-17T06:07:51.297Z,986.3
2019-01-17T06:08:53.685Z,986.2
2019-01-17T06:09:55.809Z,986.3
2019-01-17T06:10:57.918Z,986.2
2019-01-17T06:12:00.033Z,986.3
2019-01-17T06:13:02.438Z,986.2
2019-01-17T06:14:04.534Z,986.3
2019-01-17T06:15:06.661Z,986.3
2019-01-17T06:16:08.771Z,986.3
2019-01-17T06:17:10.872Z,986.3
2019-01-17T06:18:12.987Z,986.2
2019-01-17T06:19:15.392Z,986.2
2019-01-17T06:20:17.500Z,986.3
2019-01-17T06:21:19.619Z,986.3
2019-01-17T06:22:21.727Z,986.2
2019-01-17T06:23:23.830Z,986.3
2019-01-17T06:24:26.329Z,986.2
2019-01-17T06:25:28.677Z,986.4
2019-01-17T06:26:32.129Z,986.3
2019-01-17T06:27:34.275Z,986.3
2019-01-17T06:28:36.381Z,986.3
2019-01-17T06:29:38.502Z,986.4
2019-01-17T06:30:40.603Z,986.4
2019-01-17T06:31:42.715Z,986.4
2019-01-17T06:32:44.831Z,986.6
2019-01-17T06:33:46.951Z,986.4
2019-01-17T06:34:49.069Z,986.5
2019-01-17T06:35:51.591Z,986.5
2019-01-17T06:36:53.708Z,986.5
2019-01-17T06:37:55.824Z,986.5
2019-01-17T06:38:57.967Z,986.5
2019-01-17T06:40:00.444Z,986.5
2019-01-17T06:41:02.641Z,986.5
2019-01-17T06:42:04.751Z,986.5
2019-01-17T06:43:06.878Z,986.4
2019-01-17T06:44:09.292Z,986.5
2019-01-17T06:45:11.692Z,986.5
2019-01-17T06:46:13.813Z,986.5
2019-01-17T06:47:15.902Z,986.5
2019-01-17T06:48:18.056Z,986.5
2019-01-17T06:49:20.168Z,986.5
2019-01-17T06:50:22.274Z,986.5
2019-01-17T06:51:24.389Z,986.5
2019-01-17T06:52:26.523Z,986.5
2019-01-17T06:53:28.910Z,986.5
2019-01-17T06:54:31.334Z,986.5
2019-01-17T06:55:34.757Z,986.5
2019-01-17T06:56:37.146Z,986.6
2019-01-17T06:57:39.906Z,986.6
2019-01-17T06:58:42.036Z,986.7
2019-01-17T06:59:44.413Z,986.6
2019-01-17T07:00:46.530Z,986.6
2019-01-17T07:01:48.649Z,986.6
2019-01-17T07:02:50.742Z,986.6
2019-01-17T07:03:52.867Z,986.6
2019-01-17T07:04:54.967Z,986.6
2019-01-17T07:05:57.087Z,986.5
2019-01-17T07:06:59.190Z,986.6
2019-01-17T07:08:01.325Z,986.6
2019-01-17T07:09:03.428Z,986.5
2019-01-17T07:10:05.535Z,986.5
2019-01-17T07:11:08.330Z,986.5
2019-01-17T07:12:10.428Z,986.6
2019-01-17T07:13:12.548Z,986.5
2019-01-17T07:14:14.680Z,986.6
2019-01-17T07:15:16.809Z,986.6
2019-01-17T07:16:18.913Z,986.6
2019-01-17T07:17:21.030Z,986.6
2019-01-17T07:18:24.591Z,986.6
2019-01-17T07:19:26.697Z,986.7
2019-01-17T07:20:28.831Z,986.7
2019-01-17T07:21:30.941Z,986.7
2019-01-17T07:22:33.047Z,986.7
2019-01-17T07:23:35.166Z,986.8
2019-01-17T07:24:37.278Z,986.7
2019-01-17T07:25:41.784Z,986.8
2019-01-17T07:26:43.901Z,986.7
2019-01-17T07:27:45.999Z,986.7
2019-01-17T07:28:48.114Z,986.7
2019-01-17T07:29:50.625Z,986.8
2019-01-17T07:30:53.124Z,986.8
2019-01-17T07:31:55.225Z,986.8
2019-01-17T07:32:57.361Z,986.8
2019-01-17T07:33:59.534Z,986.8
2019-01-17T07:35:01.646Z,986.8
2019-01-17T07:36:03.779Z,986.7
2019-01-17T07:37:05.870Z,986.8
2019-01-17T07:38:07.987Z,986.8
2019-01-17T07:39:10.101Z,986.9
2019-01-17T07:40:12.227Z,986.8
2019-01-17T07:41:14.325Z,986.9
2019-01-17T07:42:16.807Z,986.7
2019-01-17T07:43:18.914Z,986.9
2019-01-17T07:44:21.040Z,986.9
2019-01-17T07:45:23.135Z,986.8
2019-01-17T07:46:25.532Z,986.8
2019-01-17T07:47:27.930Z,986.9
2019-01-17T07:48:30.051Z,986.9
2019-01-17T07:49:32.580Z,986.8
2019-01-17T07:50:34.699Z,986.8
2019-01-17T07:51:37.107Z,986.8
2019-01-17T07:52:39.598Z,986.8
2019-01-17T07:53:41.723Z,986.8
2019-01-17T07:54:43.823Z,986.8
2019-01-17T07:55:47.986Z,986.9
2019-01-17T07:56:50.679Z,986.9
2019-01-17T07:57:52.796Z,986.9
2019-01-17T07:58:54.896Z,986.8
2019-01-17T07:59:57.012Z,986.8
2019-01-17T08:00:59.106Z,986.9
2019-01-17T08:02:01.216Z,986.8
2019-01-17T08:03:03.378Z,986.9
2019-01-17T08:04:05.491Z,986.9
2019-01-17T08:05:07.886Z,987
2019-01-17T08:06:10.302Z,986.9
2019-01-17T08:07:12.416Z,986.8
2019-01-17T08:08:14.909Z,986.8
2019-01-17T08:09:17.308Z,986.8
2019-01-17T08:10:19.696Z,986.9
2019-01-17T08:11:22.106Z,986.9
2019-01-17T08:12:24.220Z,987
2019-01-17T08:13:26.339Z,986.9
2019-01-17T08:14:28.437Z,987
2019-01-17T08:15:30.593Z,987.1
2019-01-17T08:16:32.709Z,987
2019-01-17T08:17:34.809Z,987
2019-01-17T08:18:36.925Z,987
2019-01-17T08:19:39.171Z,987.1
2019-01-17T08:20:41.286Z,987.1
2019-01-17T08:21:43.404Z,987.1
2019-01-17T08:22:45.785Z,987.1
2019-01-17T08:23:47.911Z,987.1
2019-01-17T08:24:50.023Z,987.1
2019-01-17T08:25:54.571Z,987.2
2019-01-17T08:26:56.708Z,987.3
2019-01-17T08:27:58.810Z,987.2
2019-01-17T08:29:00.921Z,987.2
2019-01-17T08:30:03.045Z,987.3
2019-01-17T08:31:05.156Z,987.3
2019-01-17T08:32:07.260Z,987.3
2019-01-17T08:33:09.376Z,987.2
2019-01-17T08:34:11.472Z,987.3
2019-01-17T08:35:13.595Z,987.3
2019-01-17T08:36:15.721Z,987.3
2019-01-17T08:37:18.130Z,987.2
2019-01-17T08:38:20.225Z,987.2
2019-01-17T08:39:22.353Z,987.2
2019-01-17T08:40:24.511Z,987.3
2019-01-17T08:41:26.619Z,987.2
2019-01-17T08:42:28.756Z,987.3
2019-01-17T08:43:30.868Z,987.3
2019-01-17T08:44:33.020Z,987.3
2019-01-17T08:45:35.134Z,987.3
2019-01-17T08:46:37.278Z,987.3
2019-01-17T08:47:39.434Z,987.3
2019-01-17T08:48:42.116Z,987.3
2019-01-17T08:49:44.346Z,987.3
2019-01-17T08:50:46.755Z,987.3
2019-01-17T08:51:48.937Z,987.3
2019-01-17T08:52:51.083Z,987.3
2019-01-17T08:53:53.207Z,987.3
2019-01-17T08:54:55.305Z,987.2
2019-01-17T08:56:01.350Z,987.3
2019-01-17T08:57:03.742Z,987.3
2019-01-17T08:58:05.853Z,987.3
2019-01-17T08:59:07.971Z,987.3
2019-01-17T09:00:10.096Z,987.2
2019-01-17T09:01:12.193Z,987.4
2019-01-17T09:02:14.304Z,987.3
2019-01-17T09:03:16.434Z,987.3
2019-01-17T09:04:18.544Z,987.1
2019-01-17T09:05:20.655Z,987.3
2019-01-17T09:06:23.066Z,987.3
2019-01-17T09:07:25.164Z,987.3
2019-01-17T09:08:27.292Z,987.2
2019-01-17T09:09:29.818Z,987.2
2019-01-17T09:10:32.336Z,987.3
2019-01-17T09:11:34.470Z,987.3
2019-01-17T09:12:36.646Z,987.3
2019-01-17T09:13:38.778Z,987.2
2019-01-17T09:14:40.890Z,987.2
2019-01-17T09:15:43.011Z,987.3
2019-01-17T09:16:45.111Z,987.2
2019-01-17T09:17:47.223Z,987.3
2019-01-17T09:18:49.335Z,987.2
2019-01-17T09:19:51.455Z,987.3
2019-01-17T09:20:53.572Z,987.2
2019-01-17T09:21:55.706Z,987.2
2019-01-17T09:22:57.822Z,987.2
2019-01-17T09:23:59.942Z,987.2
2019-01-17T09:25:02.086Z,987.2
2019-01-17T09:26:08.145Z,987.1
2019-01-17T09:27:10.296Z,987.1
2019-01-17T09:28:12.406Z,987.1
2019-01-17T09:29:14.532Z,987.1
2019-01-17T09:30:16.633Z,987.1
2019-01-17T09:31:19.033Z,987.2
2019-01-17T09:32:21.148Z,987.1
2019-01-17T09:33:23.248Z,987.2
2019-01-17T09:34:25.371Z,987.1
2019-01-17T09:35:27.523Z,987.2
2019-01-17T09:36:29.628Z,987.1
2019-01-17T09:37:31.752Z,987
2019-01-17T09:38:33.916Z,987.2
2019-01-17T09:39:36.026Z,987.2
2019-01-17T09:40:38.147Z,987.1
2019-01-17T09:41:40.261Z,987.1
2019-01-17T09:42:42.367Z,987.2
2019-01-17T09:43:44.497Z,987.2
2019-01-17T09:44:46.611Z,987.2
2019-01-17T09:45:48.709Z,987.1
2019-01-17T09:46:50.820Z,987.3
2019-01-17T09:47:52.935Z,987.2
2019-01-17T09:48:55.030Z,987.2
2019-01-17T09:49:57.437Z,987.2
2019-01-17T09:50:59.545Z,987.1
2019-01-17T09:52:01.940Z,987.2
2019-01-17T09:53:04.435Z,987.1
2019-01-17T09:54:06.564Z,987.1
2019-01-17T09:55:08.669Z,987.2
2019-01-17T09:56:15.191Z,987.2
2019-01-17T09:57:17.598Z,987.2
2019-01-17T09:58:19.708Z,987.2
2019-01-17T09:59:21.842Z,987.1
2019-01-17T10:00:24.005Z,987.1
2019-01-17T10:01:26.124Z,987.2
2019-01-17T10:02:47.482Z,987.2
2019-01-17T10:03:49.967Z,987.2
2019-01-17T10:04:52.082Z,987.1
2019-01-17T10:05:54.201Z,987.3
2019-01-17T10:06:56.297Z,987.1
2019-01-17T10:07:58.462Z,987.2
2019-01-17T10:09:00.573Z,987.1
2019-01-17T10:10:02.677Z,987
2019-01-17T10:11:04.788Z,987.2
2019-01-17T10:12:06.907Z,987.1
2019-01-17T10:13:09.014Z,987.1
2019-01-17T10:14:11.110Z,987.1
2019-01-17T10:15:13.225Z,987.1
2019-01-17T10:16:15.347Z,987.1
2019-01-17T10:17:17.455Z,987.1
2019-01-17T10:18:19.558Z,987
2019-01-17T10:19:21.699Z,987.1
2019-01-17T10:20:23.837Z,987
2019-01-17T10:21:26.238Z,987.1
2019-01-17T10:22:28.645Z,987.1
2019-01-17T10:23:30.744Z,987
2019-01-17T10:24:32.866Z,987
2019-01-17T10:25:34.982Z,987.2
2019-01-17T10:26:37.103Z,987
2019-01-17T10:27:39.211Z,987
2019-01-17T10:28:41.342Z,987
2019-01-17T10:29:43.452Z,987
2019-01-17T10:30:45.560Z,987.1
2019-01-17T10:31:47.685Z,987.1
2019-01-17T10:32:49.832Z,987
2019-01-17T10:33:52.085Z,987
2019-01-17T10:34:54.502Z,987
2019-01-17T10:35:56.668Z,987
2019-01-17T10:36:58.784Z,986.9
2019-01-17T10:38:00.906Z,987
2019-01-17T10:39:03.030Z,986.8
2019-01-17T10:40:05.122Z,986.9
2019-01-17T10:41:07.248Z,986.9
2019-01-17T10:42:09.361Z,986.9
2019-01-17T10:43:11.465Z,986.9
2019-01-17T10:44:13.576Z,986.9
2019-01-17T10:45:15.696Z,987
2019-01-17T10:46:17.801Z,986.9
2019-01-17T10:47:20.213Z,986.9
2019-01-17T10:48:22.334Z,987
2019-01-17T10:49:24.466Z,986.9
2019-01-17T10:50:26.964Z,987
2019-01-17T10:51:29.077Z,986.8
2019-01-17T10:52:31.207Z,986.9
2019-01-17T10:53:33.595Z,986.9
2019-01-17T10:54:35.701Z,986.8
2019-01-17T10:55:38.127Z,986.7
2019-01-17T10:56:41.893Z,986.7
2019-01-17T10:57:44.018Z,986.8
2019-01-17T10:58:46.133Z,986.8
2019-01-17T10:59:48.539Z,986.7
2019-01-17T11:00:50.650Z,986.8
2019-01-17T11:01:52.778Z,986.8
2019-01-17T11:02:54.893Z,986.7
2019-01-17T11:03:56.991Z,986.8
2019-01-17T11:04:59.121Z,986.7
2019-01-17T11:06:01.292Z,986.6
2019-01-17T11:07:03.718Z,986.7
2019-01-17T11:08:05.837Z,986.7
2019-01-17T11:09:07.970Z,986.7
2019-01-17T11:10:10.085Z,986.7
2019-01-17T11:11:12.216Z,986.8
2019-01-17T11:12:14.608Z,986.7
2019-01-17T11:13:17.009Z,986.7
2019-01-17T11:14:19.133Z,986.7
2019-01-17T11:15:21.248Z,986.7
2019-01-17T11:16:23.349Z,986.6
2019-01-17T11:17:25.463Z,986.6
2019-01-17T11:18:27.580Z,986.7
2019-01-17T11:19:29.683Z,986.7
2019-01-17T11:20:31.815Z,986.6
2019-01-17T11:21:33.923Z,986.6
2019-01-17T11:22:36.032Z,986.7
2019-01-17T11:23:38.158Z,986.7
2019-01-17T11:24:40.286Z,986.7
2019-01-17T11:25:42.390Z,986.6
2019-01-17T11:26:44.510Z,986.7
2019-01-17T11:27:46.634Z,986.6
2019-01-17T11:28:48.764Z,986.6
2019-01-17T11:29:50.862Z,986.6
2019-01-17T11:30:52.973Z,986.6
2019-01-17T11:31:55.082Z,986.6
2019-01-17T11:32:57.202Z,986.7
2019-01-17T11:33:59.297Z,986.6
2019-01-17T11:35:01.429Z,986.5
2019-01-17T11:36:03.550Z,986.6
2019-01-17T11:37:05.938Z,986.5
2019-01-17T11:38:08.069Z,986.5
2019-01-17T11:39:10.175Z,986.5
2019-01-17T11:40:12.294Z,986.6
2019-01-17T11:41:14.682Z,986.5
2019-01-17T11:42:16.807Z,986.4
2019-01-17T11:43:19.184Z,986.5
2019-01-17T11:44:21.299Z,986.7
2019-01-17T11:45:23.414Z,986.4
2019-01-17T11:46:25.523Z,986.6
2019-01-17T11:47:27.645Z,986.5
2019-01-17T11:48:29.753Z,986.5
2019-01-17T11:49:31.859Z,986.5
2019-01-17T11:50:33.969Z,986.4
2019-01-17T11:51:36.095Z,986.5
2019-01-17T11:52:38.211Z,986.5
2019-01-17T11:53:40.328Z,986.5
2019-01-17T11:54:42.437Z,986.5
2019-01-17T11:55:44.821Z,986.4
2019-01-17T11:56:46.947Z,986.5
2019-01-17T11:57:49.070Z,986.4
2019-01-17T11:58:51.160Z,986.4
2019-01-17T11:59:53.279Z,986.4
2019-01-17T12:00:55.399Z,986.4
2019-01-17T12:01:57.506Z,986.3
2019-01-17T12:02:59.631Z,986.4
2019-01-17T12:04:01.751Z,986.4
2019-01-17T12:05:04.155Z,986.4
2019-01-17T12:06:06.256Z,986.4
2019-01-17T12:07:08.388Z,986.4
2019-01-17T12:08:10.493Z,986.4
2019-01-17T12:09:12.601Z,986.3
2019-01-17T12:10:14.720Z,986.4
2019-01-17T12:11:16.815Z,986.3
2019-01-17T12:12:18.934Z,986.3
2019-01-17T12:13:21.333Z,986.2
2019-01-17T12:14:24.401Z,986.2
2019-01-17T12:15:26.509Z,986.1
2019-01-17T12:16:28.652Z,986.1
2019-01-17T12:17:30.797Z,986.2
2019-01-17T12:18:33.288Z,986.1
2019-01-17T12:19:35.698Z,986.1
2019-01-17T12:20:37.809Z,986.1
2019-01-17T12:21:40.313Z,986
2019-01-17T12:22:42.440Z,986.3
2019-01-17T12:23:44.558Z,986.2
2019-01-17T12:24:46.671Z,986.2
2019-01-17T12:25:48.797Z,986.2
2019-01-17T12:26:50.907Z,986.1
2019-01-17T12:27:53.049Z,986.2
2019-01-17T12:28:55.182Z,986.2
2019-01-17T12:29:57.296Z,986.2
2019-01-17T12:30:59.415Z,986.1
2019-01-17T12:32:01.829Z,986
2019-01-17T12:33:03.971Z,986
2019-01-17T12:34:06.079Z,986
2019-01-17T12:35:08.204Z,986.1
2019-01-17T12:36:10.299Z,986
2019-01-17T12:37:12.840Z,986.1
2019-01-17T12:38:14.961Z,986
2019-01-17T12:39:17.389Z,985.9
2019-01-17T12:40:19.484Z,986
2019-01-17T12:41:21.605Z,986.1
2019-01-17T12:42:24.015Z,986
2019-01-17T12:43:26.121Z,986.1
2019-01-17T12:44:28.236Z,986
2019-01-17T12:45:30.357Z,986
2019-01-17T12:46:32.757Z,986
2019-01-17T12:47:34.870Z,986.1
2019-01-17T12:48:36.970Z,986.2
2019-01-17T12:49:39.093Z,986.1
2019-01-17T12:50:41.196Z,986.1
2019-01-17T12:51:43.303Z,986.1
2019-01-17T12:52:45.439Z,986.3
2019-01-17T12:53:47.544Z,986.1
2019-01-17T12:54:49.659Z,986.1
2019-01-17T12:55:51.795Z,985.9
2019-01-17T12:56:54.440Z,986.1
2019-01-17T12:57:56.549Z,986
2019-01-17T12:58:58.656Z,985.9
2019-01-17T13:00:00.759Z,986
2019-01-17T13:01:09.723Z,986.1
2019-01-17T13:02:11.857Z,986
2019-01-17T13:03:13.973Z,986
2019-01-17T13:04:16.084Z,986
2019-01-17T13:05:18.222Z,986
2019-01-17T13:06:20.615Z,985.9
2019-01-17T13:07:22.730Z,986
2019-01-17T13:08:25.250Z,986
2019-01-17T13:09:27.344Z,986
2019-01-17T13:10:29.463Z,986
2019-01-17T13:11:31.574Z,985.9
2019-01-17T13:12:33.696Z,985.9
2019-01-17T13:13:35.797Z,986
2019-01-17T13:14:37.916Z,986
2019-01-17T13:15:40.029Z,986.1
2019-01-17T13:16:42.160Z,986
2019-01-17T13:17:44.294Z,986
2019-01-17T13:18:46.393Z,985.9
2019-01-17T13:19:48.504Z,985.8
2019-01-17T13:20:50.615Z,985.9
2019-01-17T13:21:52.753Z,985.9
2019-01-17T13:22:54.907Z,985.8
2019-01-17T13:23:57.009Z,985.9
2019-01-17T13:24:59.111Z,985.8
2019-01-17T13:26:01.240Z,985.8
2019-01-17T13:27:03.352Z,986
2019-01-17T13:28:05.489Z,985.8